Time;durP1;ratioP1;P1;durP2;ratioP2;P2;SDS_P1;SDS_P2;PMS_P1;PMS_P2;Temp;Humidity;BMP_temperature;BMP_pressure;BME280_temperature;BME280_humidity;BME280_pressure;Samples;Min_cycle;Max_cycle;Signal;HPM_P1;HPM_P2
2022/12/16 00:01:52;;;;;;;11.02;5.22;;;6.40;99.90;;;6.52;80.34;100862.13;5053646;28;20697;-72
2022/12/16 00:04:22;;;;;;;9.52;4.75;;;6.40;99.90;;;6.45;80.23;100865.50;5053429;28;20045;-73
2022/12/16 00:06:50;;;;;;;13.50;5.13;;;6.40;99.90;;;6.54;80.23;100870.91;5053669;28;20090;-72
2022/12/16 00:09:20;;;;;;;15.95;5.93;;;6.50;99.90;;;6.46;80.31;100875.16;5053621;28;20041;-71
2022/12/16 00:11:48;;;;;;;12.33;5.37;;;6.40;99.90;;;6.36;80.77;100867.19;5053266;28;20045;-72
2022/12/16 00:14:16;;;;;;;10.85;5.38;;;6.40;99.90;;;6.31;81.16;100868.84;5053476;28;20276;-72
2022/12/16 00:16:45;;;;;;;8.83;5.23;;;6.30;99.90;;;6.30;81.39;100869.72;5053193;28;20128;-72
2022/12/16 00:19:13;;;;;;;12.60;5.30;;;6.20;99.90;;;6.20;81.50;100872.22;5052829;28;20083;-73
2022/12/16 00:21:42;;;;;;;13.10;5.78;;;6.20;99.90;;;6.30;81.64;100866.22;5053216;28;20075;-72
2022/12/16 00:24:10;;;;;;;11.75;5.28;;;6.20;99.90;;;6.28;81.35;100876.72;5053195;28;20068;-72
2022/12/16 00:26:40;;;;;;;13.73;5.32;;;6.20;99.90;;;6.29;81.36;100878.47;5053532;28;20041;-72
2022/12/16 00:29:09;;;;;;;11.93;4.90;;;6.20;99.90;;;6.29;81.52;100870.56;5052293;28;20486;-72
2022/12/16 00:31:38;;;;;;;8.70;4.53;;;6.20;99.90;;;6.11;81.72;100870.38;5053759;28;20710;-72
2022/12/16 00:34:06;;;;;;;13.57;5.20;;;6.00;99.90;;;6.09;81.39;100872.09;5053026;28;20053;-72
2022/12/16 00:36:35;;;;;;;6.20;5.07;;;6.00;99.90;;;6.09;81.41;100879.97;5053395;28;20076;-72
2022/12/16 00:39:03;;;;;;;7.57;5.25;;;6.00;99.90;;;6.08;81.35;100887.78;5052976;28;20399;-72
2022/12/16 00:41:32;;;;;;;8.83;5.50;;;6.00;99.90;;;6.10;81.09;100889.59;5051904;28;20053;-71
2022/12/16 00:44:01;;;;;;;10.27;5.80;;;6.10;99.90;;;6.09;81.11;100887.84;5053133;28;20048;-72
2022/12/16 00:46:30;;;;;;;13.68;5.93;;;6.00;99.90;;;6.07;81.07;100886.03;5053023;28;20092;-72
2022/12/16 00:48:58;;;;;;;5.80;5.03;;;6.00;99.90;;;6.08;81.05;100896.56;5052865;28;20397;-72
2022/12/16 00:51:27;;;;;;;11.25;4.70;;;6.00;99.90;;;6.08;81.30;100893.94;5053096;28;20044;-72
2022/12/16 00:53:55;;;;;;;6.68;5.10;;;6.00;99.90;;;6.10;80.80;100889.59;5052868;28;20041;-72
2022/12/16 00:56:23;;;;;;;8.40;5.25;;;6.00;99.90;;;6.11;80.70;100898.34;5052859;28;20379;-73
2022/12/16 00:58:52;;;;;;;7.20;5.88;;;6.00;99.90;;;6.03;80.78;100898.25;5052785;28;20039;-72
2022/12/16 01:01:23;;;;;;;10.23;5.55;;;6.00;99.90;;;5.95;80.51;100899.88;5051785;28;20513;-72
2022/12/16 01:03:51;;;;;;;7.38;5.00;;;5.90;99.90;;;6.00;80.20;100908.69;5051767;28;20045;-72
2022/12/16 01:06:21;;;;;;;10.65;5.60;;;5.90;99.90;;;5.94;80.21;100902.50;5051849;28;20482;-73
2022/12/16 01:08:49;;;;;;;13.05;5.88;;;5.80;99.90;;;5.97;80.13;100903.41;5053009;28;20048;-74
2022/12/16 01:11:20;;;;;;;8.50;5.35;;;5.90;99.90;;;6.03;79.93;100898.25;5052617;28;20123;-74
2022/12/16 01:13:51;;;;;;;10.73;5.20;;;5.90;99.90;;;6.10;79.30;100907.06;5052682;28;20616;-74
2022/12/16 01:16:23;;;;;;;9.52;5.53;;;6.00;99.90;;;6.17;78.82;100911.56;5053057;28;20049;-74
2022/12/16 01:18:52;;;;;;;7.10;4.93;;;6.00;99.90;;;6.13;78.69;100915.91;5052875;28;20049;-73
2022/12/16 01:21:22;;;;;;;15.73;5.85;;;6.10;99.90;;;6.13;78.46;100920.25;5068369;28;20704;-73
2022/12/16 01:23:50;;;;;;;9.48;5.60;;;6.00;99.90;;;6.06;78.56;100919.28;5052558;28;20517;-73
2022/12/16 01:26:22;;;;;;;8.93;5.50;;;6.00;99.90;;;6.15;77.83;100929.03;5052602;28;20063;-73
2022/12/16 01:28:50;;;;;;;11.63;5.72;;;6.00;99.90;;;6.15;77.37;100932.56;5052540;28;20041;-73
2022/12/16 01:31:20;;;;;;;12.18;5.05;;;6.10;99.90;;;6.05;77.24;100912.28;5054113;28;20102;-73
2022/12/16 01:33:50;;;;;;;15.10;5.28;;;6.00;99.90;;;6.10;77.13;100934.22;5056204;28;20041;-73
2022/12/16 01:36:19;;;;;;;7.22;5.45;;;6.00;99.90;;;6.16;76.66;100942.19;5056574;28;20072;-73
2022/12/16 01:38:47;;;;;;;11.63;6.07;;;6.10;99.90;;;6.11;76.76;100945.63;5056389;28;20037;-73
2022/12/16 01:41:17;;;;;;;12.15;6.07;;;6.00;99.90;;;6.13;76.47;100947.41;5056374;28;20059;-72
2022/12/16 01:43:46;;;;;;;9.57;5.50;;;6.00;99.90;;;6.08;76.30;100958.69;5071745;28;20068;-73
2022/12/16 01:46:20;;;;;;;13.65;5.78;;;6.00;99.90;;;5.98;75.93;100957.66;5056606;28;20053;-73
2022/12/16 01:48:56;;;;;;;11.27;6.05;;;5.90;99.90;;;5.82;75.78;100937.28;5056314;28;20045;-73
2022/12/16 01:51:29;;;;;;;12.77;5.70;;;5.90;99.90;;;5.91;75.86;100966.31;5055997;28;20033;-73
2022/12/16 01:54:03;;;;;;;9.68;5.68;;;5.80;99.90;;;5.88;75.95;100966.28;5055883;28;20041;-72
2022/12/16 01:56:33;;;;;;;16.42;5.93;;;5.80;99.90;;;5.91;75.26;100970.66;5055896;28;20048;-73
2022/12/16 01:59:03;;;;;;;12.52;5.32;;;5.80;99.90;;;5.80;75.32;100969.59;5056176;28;20135;-73
2022/12/16 02:01:31;;;;;;;12.07;5.53;;;5.80;99.90;;;5.80;75.28;100967.84;5056314;28;20051;-73
2022/12/16 02:04:03;;;;;;;13.73;5.53;;;5.80;99.90;;;5.86;74.73;100980.22;5055973;28;20349;-73
2022/12/16 02:06:32;;;;;;;10.07;6.07;;;5.80;99.90;;;5.76;74.59;100981.78;5055668;28;20041;-73
2022/12/16 02:09:08;;;;;;;17.20;6.00;;;5.70;99.90;;;5.68;74.78;100986.00;5055784;28;20044;-73
2022/12/16 02:12:10;;;;;;;12.03;5.63;;;5.70;99.90;;;5.72;75.10;100998.31;5055591;28;20092;-73
2022/12/16 02:15:07;;;;;;;14.43;5.57;;;5.60;99.90;;;5.63;74.46;100997.28;5053178;28;20087;-73
2022/12/16 02:17:45;;;;;;;15.18;5.47;;;5.60;99.90;;;5.66;74.56;101006.09;5055738;28;20059;-73
2022/12/16 02:21:11;;;;;;;10.40;5.00;;;5.60;99.90;;;5.60;74.12;100991.97;5055700;28;20068;-73
2022/12/16 02:24:30;;;;;;;13.17;5.77;;;5.60;99.90;;;5.63;74.23;101000.81;5054641;28;20045;-73
2022/12/16 02:27:41;;;;;;;9.57;5.37;;;5.50;99.90;;;5.69;74.05;100995.63;5055520;28;20136;-73
2022/12/16 02:30:29;;;;;;;9.10;5.03;;;5.60;99.90;;;5.67;73.84;100988.63;5055273;28;20124;-72
2022/12/16 02:33:14;;;;;;;10.70;5.07;;;5.60;99.90;;;5.55;73.30;100997.16;5055161;28;20098;-72
2022/12/16 02:35:48;;;;;;;10.97;5.30;;;5.60;99.90;;;5.52;73.66;100997.09;5055163;28;20047;-72
2022/12/16 02:38:26;;;;;;;10.00;5.50;;;5.50;99.90;;;5.55;73.66;100996.25;5055086;28;20124;-73
2022/12/16 02:41:01;;;;;;;8.43;4.78;;;5.50;99.90;;;5.52;73.45;100996.22;5054050;28;20053;-73
2022/12/16 02:43:52;;;;;;;11.23;5.40;;;5.40;99.90;;;5.54;73.05;101000.63;5055054;28;20114;-73
2022/12/16 02:46:26;;;;;;;9.90;5.10;;;5.50;99.90;;;5.56;73.00;100996.28;5055008;28;20431;-73
2022/12/16 02:48:55;;;;;;;9.43;5.20;;;5.50;99.90;;;5.62;73.11;100996.41;5055210;28;20071;-73
2022/12/16 02:51:26;;;;;;;7.47;4.93;;;5.50;99.90;;;5.66;72.59;101003.47;5055671;28;20040;-72
2022/12/16 02:53:55;;;;;;;7.60;4.78;;;5.60;99.90;;;5.70;72.66;101012.28;5055021;28;20394;-73
2022/12/16 02:56:39;;;;;;;10.98;5.93;;;5.60;99.90;;;5.70;72.42;101012.28;5055051;28;20048;-73
2022/12/16 02:59:18;;;;;;;7.88;5.47;;;5.60;99.90;;;5.73;71.94;101015.81;5053978;28;20049;-73
2022/12/16 03:01:56;;;;;;;21.35;5.85;;;5.60;99.90;;;5.63;71.75;101010.41;5054655;28;20037;-73
2022/12/16 03:04:32;;;;;;;8.50;4.85;;;5.60;99.90;;;5.74;71.72;101028.09;5054653;28;20490;-72
2022/12/16 03:07:02;;;;;;;11.38;5.20;;;5.60;99.90;;;5.66;71.85;101026.19;5053612;28;20163;-72
2022/12/16 03:09:34;;;;;;;9.32;4.95;;;5.60;99.90;;;5.60;71.54;101029.59;5054512;28;20250;-72
2022/12/16 03:12:08;;;;;;;12.07;5.20;;;5.50;99.90;;;5.61;70.98;101036.63;5054449;28;20045;-73
2022/12/16 03:14:43;;;;;;;10.13;5.32;;;5.50;99.90;;;5.59;71.22;101035.72;5054623;28;20372;-72
2022/12/16 03:17:14;;;;;;;13.93;5.13;;;5.50;99.90;;;5.40;71.55;100996.88;5054398;28;20068;-73
2022/12/16 03:19:49;;;;;;;9.40;5.00;;;5.50;99.90;;;5.62;71.32;101034.84;5054264;28;20541;-73
2022/12/16 03:22:21;;;;;;;12.55;4.82;;;5.50;99.90;;;5.68;71.03;101029.72;5054288;28;20041;-72
2022/12/16 03:24:50;;;;;;;14.80;5.23;;;5.60;99.90;;;5.64;71.05;101038.41;5054276;28;20128;-73
2022/12/16 03:27:25;;;;;;;9.87;4.60;;;5.50;99.90;;;5.61;70.58;101027.84;5052805;28;20037;-73
2022/12/16 03:29:59;;;;;;;8.00;4.90;;;5.60;99.90;;;5.58;70.34;101043.53;5054457;28;20045;-73
2022/12/16 03:32:37;;;;;;;10.60;4.73;;;5.50;99.90;;;5.59;70.20;101043.59;5054137;28;20079;-73
2022/12/16 03:35:14;;;;;;;11.80;5.20;;;5.50;99.90;;;5.52;70.20;101046.94;5054293;28;20045;-73
2022/12/16 03:37:46;;;;;;;12.63;4.60;;;5.40;99.90;;;5.60;70.31;101052.31;5054031;28;20501;-72
2022/12/16 03:40:15;;;;;;;12.57;4.80;;;5.50;99.90;;;5.56;70.28;101051.38;5053870;28;20482;-73
2022/12/16 03:42:44;;;;;;;13.80;5.23;;;5.40;99.90;;;5.59;69.72;101051.44;5069156;28;20047;-73
2022/12/16 03:45:17;;;;;;;10.53;5.03;;;5.50;99.90;;;5.56;69.68;101055.72;5053883;28;20045;-72
2022/12/16 03:47:51;;;;;;;7.97;4.97;;;5.50;99.90;;;5.54;69.67;101053.09;5054115;28;20131;-73
2022/12/16 03:50:24;;;;;;;10.43;5.03;;;5.50;99.90;;;5.52;70.00;101052.16;5053721;28;20552;-73
2022/12/16 03:52:53;;;;;;;9.40;5.20;;;5.50;99.90;;;5.53;69.92;101056.56;5054023;28;20041;-73
2022/12/16 03:55:21;;;;;;;12.97;5.97;;;5.40;99.90;;;5.56;69.50;101067.13;5068815;28;20483;-73
2022/12/16 03:57:49;;;;;;;8.80;5.03;;;5.40;99.90;;;5.52;69.94;101064.44;5053549;28;20099;-72
2022/12/16 04:00:18;;;;;;;8.97;5.47;;;5.40;99.90;;;5.53;69.52;101071.44;5052618;28;20040;-73
2022/12/16 04:02:47;;;;;;;9.73;5.00;;;5.40;99.90;;;5.48;69.57;101069.59;5053964;28;20049;-73
2022/12/16 04:05:17;;;;;;;13.87;5.60;;;5.40;99.90;;;5.30;69.66;101039.53;5053378;28;20067;-73
2022/12/16 04:07:45;;;;;;;13.38;5.22;;;5.40;99.90;;;5.56;69.85;101076.72;5053771;28;20045;-73
2022/12/16 04:10:14;;;;;;;11.57;5.20;;;5.40;99.90;;;5.52;69.43;101075.78;5053307;28;20033;-74
2022/12/16 04:29:24;;;;;;;11.37;5.10;;;5.30;99.90;;;5.38;69.64;101090.38;5053112;28;20079;-73
2022/12/16 04:31:53;;;;;;;12.13;4.80;;;5.30;99.90;;;5.33;69.69;101094.63;5053285;28;20035;-73
2022/12/16 04:34:24;;;;;;;7.53;5.07;;;5.20;99.90;;;5.36;69.59;101099.97;5053185;28;20426;-73
